createdAt,value
2019-05-19T00:00:11.645Z,10.80
2019-05-19T00:02:40.868Z,10.80
2019-05-19T00:05:08.151Z,11.10
2019-05-19T00:07:35.072Z,10.80
2019-05-19T00:10:04.921Z,10.70
2019-05-19T00:12:31.735Z,10.70
2019-05-19T00:14:58.582Z,10.60
2019-05-19T00:17:25.380Z,10.80
2019-05-19T00:19:52.191Z,10.70
2019-05-19T00:22:18.996Z,10.50
2019-05-19T00:24:45.793Z,10.50
2019-05-19T00:27:12.775Z,10.10
2019-05-19T00:29:39.595Z,10.30
2019-05-19T00:32:06.446Z,10.20
2019-05-19T00:34:33.312Z,10.20
2019-05-19T00:37:00.167Z,10.30
2019-05-19T00:39:26.976Z,10.10
2019-05-19T00:41:54.164Z,10.20
2019-05-19T00:44:21.057Z,10.30
2019-05-19T00:46:47.943Z,10.30
2019-05-19T00:49:14.783Z,10.30
2019-05-19T00:51:42.402Z,10.30
2019-05-19T00:54:09.427Z,10.20
2019-05-19T00:56:36.831Z,10.20
2019-05-19T00:59:04.817Z,10.20
2019-05-19T01:01:31.598Z,10.10
2019-05-19T01:03:58.422Z,9.90
2019-05-19T01:06:25.231Z,9.90
2019-05-19T01:08:52.020Z,9.90
2019-05-19T01:11:18.830Z,9.90
2019-05-19T01:13:45.629Z,9.90
2019-05-19T01:16:12.416Z,10.00
2019-05-19T01:18:39.336Z,10.00
2019-05-19T01:21:06.105Z,9.90
2019-05-19T01:23:32.904Z,9.90
2019-05-19T01:25:59.929Z,9.90
2019-05-19T01:28:26.726Z,9.80
2019-05-19T01:30:53.540Z,9.70
2019-05-19T01:33:20.343Z,9.70
2019-05-19T01:35:47.134Z,9.50
2019-05-19T01:38:13.919Z,8.50
2019-05-19T01:40:40.743Z,9.20
2019-05-19T01:43:07.550Z,9.30
2019-05-19T01:45:34.598Z,9.20
2019-05-19T01:48:01.425Z,9.20
2019-05-19T01:50:28.321Z,9.10
2019-05-19T01:52:55.435Z,9.20
2019-05-19T01:55:22.573Z,9.30
2019-05-19T01:57:49.383Z,9.30
2019-05-19T02:00:16.726Z,9.30
2019-05-19T02:02:43.561Z,8.70
2019-05-19T02:05:10.671Z,9.50
2019-05-19T02:07:37.484Z,9.60
2019-05-19T02:10:08.356Z,9.50
2019-05-19T02:12:35.103Z,9.50
2019-05-19T02:15:04.023Z,9.40
2019-05-19T02:17:31.163Z,9.30
2019-05-19T02:19:57.969Z,9.20
2019-05-19T02:22:24.784Z,9.20
2019-05-19T02:24:51.575Z,9.20
2019-05-19T02:27:18.503Z,9.10
2019-05-19T02:29:45.345Z,9.10
2019-05-19T02:32:12.399Z,9.20
2019-05-19T02:34:39.192Z,9.20
2019-05-19T02:37:06.007Z,9.20
2019-05-19T02:39:32.912Z,9.30
2019-05-19T02:42:03.411Z,9.40
2019-05-19T02:44:33.711Z,9.40
2019-05-19T02:47:02.343Z,9.50
2019-05-19T02:49:31.338Z,9.50
2019-05-19T02:52:01.248Z,9.50
2019-05-19T02:54:30.416Z,9.50
2019-05-19T02:56:59.056Z,9.40
2019-05-19T02:59:28.062Z,9.60
2019-05-19T03:02:08.624Z,9.50
2019-05-19T03:04:35.427Z,9.50
2019-05-19T03:07:02.217Z,9.50
2019-05-19T03:09:29.076Z,9.50
2019-05-19T03:11:56.322Z,9.50
2019-05-19T03:14:23.124Z,9.50
2019-05-19T03:16:50.371Z,9.60
2019-05-19T03:19:17.217Z,9.60
2019-05-19T03:21:44.081Z,9.70
2019-05-19T03:24:10.933Z,9.60
2019-05-19T03:26:37.724Z,9.70
2019-05-19T03:29:04.504Z,9.80
2019-05-19T03:31:36.026Z,9.70
2019-05-19T03:34:04.494Z,9.70
2019-05-19T03:36:31.571Z,9.70
2019-05-19T03:38:58.390Z,9.60
2019-05-19T03:41:25.304Z,9.60
2019-05-19T03:43:52.095Z,9.60
2019-05-19T03:46:18.906Z,9.60
2019-05-19T03:48:45.748Z,9.50
2019-05-19T03:51:29.150Z,9.50
2019-05-19T03:53:41.466Z,9.40
2019-05-19T03:56:08.295Z,9.30
2019-05-19T03:58:35.384Z,9.30
2019-05-19T04:01:02.179Z,9.20
2019-05-19T04:03:28.976Z,9.20
2019-05-19T04:05:55.791Z,9.20
2019-05-19T04:08:22.590Z,9.20
2019-05-19T04:10:49.393Z,9.20
2019-05-19T04:13:16.291Z,9.20
2019-05-19T04:15:43.106Z,9.10
2019-05-19T04:18:09.885Z,9.10
2019-05-19T04:20:36.790Z,9.00
2019-05-19T04:23:03.631Z,9.00
2019-05-19T04:25:30.452Z,8.90
2019-05-19T04:27:57.307Z,8.90
2019-05-19T04:30:24.464Z,8.90
2019-05-19T04:32:51.364Z,9.00
2019-05-19T04:35:18.148Z,9.00
2019-05-19T04:37:44.945Z,8.90
2019-05-19T04:40:12.475Z,8.90
2019-05-19T04:42:39.396Z,8.90
2019-05-19T04:45:06.318Z,8.90
2019-05-19T04:47:33.137Z,8.80
2019-05-19T04:49:59.932Z,8.80
2019-05-19T04:52:26.763Z,8.80
2019-05-19T04:54:53.576Z,8.80
2019-05-19T04:57:20.388Z,8.60
2019-05-19T04:59:48.384Z,8.70
2019-05-19T05:02:15.189Z,8.60
2019-05-19T05:04:41.981Z,8.60
2019-05-19T05:07:08.807Z,8.50
2019-05-19T05:09:35.643Z,8.50
2019-05-19T05:12:02.426Z,8.50
2019-05-19T05:14:29.236Z,8.60
2019-05-19T05:16:56.051Z,8.60
2019-05-19T05:19:22.840Z,8.60
2019-05-19T05:21:49.753Z,8.60
2019-05-19T05:24:16.556Z,8.50
2019-05-19T05:26:43.340Z,8.50
2019-05-19T05:29:10.146Z,8.50
2019-05-19T05:31:37.060Z,8.40
2019-05-19T05:34:03.858Z,8.40
2019-05-19T05:36:30.659Z,8.40
2019-05-19T05:38:57.460Z,8.40
2019-05-19T05:41:24.261Z,8.30
2019-05-19T05:43:51.133Z,8.40
2019-05-19T05:46:17.923Z,8.40
2019-05-19T05:48:44.722Z,8.50
2019-05-19T05:51:11.557Z,8.50
2019-05-19T05:53:38.350Z,8.50
2019-05-19T05:56:05.139Z,8.60
2019-05-19T05:58:32.259Z,8.70
2019-05-19T06:00:59.544Z,8.70
2019-05-19T06:03:26.729Z,8.70
2019-05-19T06:05:53.569Z,8.70
2019-05-19T06:08:20.704Z,8.70
2019-05-19T06:10:47.540Z,8.80
2019-05-19T06:13:14.370Z,8.80
2019-05-19T06:15:41.165Z,8.80
2019-05-19T06:18:07.956Z,9.00
2019-05-19T06:20:34.816Z,8.90
2019-05-19T06:23:01.741Z,8.90
2019-05-19T06:25:28.855Z,9.00
2019-05-19T06:27:55.884Z,9.10
2019-05-19T06:30:22.684Z,9.00
2019-05-19T06:32:51.347Z,9.10
2019-05-19T06:35:18.360Z,9.10
2019-05-19T06:37:45.139Z,9.20
2019-05-19T06:40:12.941Z,9.20
2019-05-19T06:42:40.114Z,9.20
2019-05-19T06:45:07.811Z,9.30
2019-05-19T06:47:34.623Z,9.30
2019-05-19T06:50:02.150Z,9.40
2019-05-19T06:52:29.206Z,9.30
2019-05-19T06:54:55.997Z,9.20
2019-05-19T06:57:22.839Z,9.30
2019-05-19T06:59:49.629Z,9.30
2019-05-19T07:02:16.646Z,9.40
2019-05-19T07:04:43.455Z,9.50
2019-05-19T07:07:10.555Z,9.50
2019-05-19T07:09:37.692Z,9.30
2019-05-19T07:12:04.627Z,9.40
2019-05-19T07:14:31.521Z,9.50
2019-05-19T07:16:58.410Z,9.50
2019-05-19T07:19:25.287Z,9.60
2019-05-19T07:21:52.439Z,9.70
2019-05-19T07:24:19.249Z,9.70
2019-05-19T07:26:46.058Z,9.70
2019-05-19T07:29:12.951Z,9.80
2019-05-19T07:31:39.801Z,9.80
2019-05-19T07:34:06.950Z,9.90
2019-05-19T07:36:33.799Z,9.90
2019-05-19T07:39:00.588Z,10.00
2019-05-19T07:41:27.765Z,10.00
2019-05-19T07:43:54.576Z,9.90
2019-05-19T07:46:21.364Z,10.00
2019-05-19T07:48:48.402Z,9.90
2019-05-19T07:51:15.419Z,10.00
2019-05-19T07:53:43.353Z,10.10
2019-05-19T07:56:10.935Z,10.10
2019-05-19T07:58:38.465Z,10.20
2019-05-19T08:01:05.256Z,10.20
2019-05-19T08:03:32.202Z,10.20
2019-05-19T08:05:59.082Z,10.30
2019-05-19T08:08:26.159Z,10.20
2019-05-19T08:10:53.262Z,10.40
2019-05-19T08:13:20.053Z,10.40
2019-05-19T08:15:46.915Z,10.40
2019-05-19T08:18:13.834Z,10.40
2019-05-19T08:20:40.623Z,10.50
2019-05-19T08:23:07.467Z,10.60
2019-05-19T08:25:34.258Z,10.70
2019-05-19T08:28:08.560Z,10.70
2019-05-19T08:30:29.795Z,10.80
2019-05-19T08:32:56.688Z,10.80
2019-05-19T08:35:23.547Z,10.90
2019-05-19T08:37:50.330Z,11.00
2019-05-19T08:40:17.446Z,11.10
2019-05-19T08:42:44.292Z,11.10
2019-05-19T08:45:13.907Z,11.30
2019-05-19T08:47:40.809Z,11.40
2019-05-19T08:50:08.615Z,11.40
2019-05-19T08:52:35.396Z,11.40
2019-05-19T08:55:04.939Z,11.50
2019-05-19T08:57:31.747Z,11.60
2019-05-19T08:59:58.698Z,11.70
2019-05-19T09:02:25.529Z,11.80
2019-05-19T09:04:52.426Z,12.00
2019-05-19T09:07:19.241Z,12.00
2019-05-19T09:09:46.192Z,12.10
2019-05-19T09:12:13.216Z,12.10
2019-05-19T09:14:40.147Z,12.10
2019-05-19T09:17:07.057Z,12.30
2019-05-19T09:19:34.256Z,12.20
2019-05-19T09:22:01.289Z,12.30
2019-05-19T09:24:30.502Z,12.30
2019-05-19T09:26:56.907Z,11.90
2019-05-19T09:29:23.864Z,12.40
2019-05-19T09:31:50.893Z,12.40
2019-05-19T09:34:18.003Z,12.50
2019-05-19T09:36:44.783Z,12.60
2019-05-19T09:39:11.581Z,12.70
2019-05-19T09:41:38.583Z,12.80
2019-05-19T09:44:05.516Z,12.90
2019-05-19T09:46:32.572Z,13.00
2019-05-19T09:49:17.944Z,13.00
2019-05-19T09:51:44.770Z,13.00
2019-05-19T09:54:11.574Z,13.10
2019-05-19T09:56:38.824Z,13.20
2019-05-19T09:59:05.662Z,13.30
2019-05-19T10:01:32.494Z,13.30
2019-05-19T10:03:59.298Z,13.30
2019-05-19T10:06:26.273Z,13.30
2019-05-19T10:08:56.619Z,13.40
2019-05-19T10:12:00.425Z,13.50
2019-05-19T10:14:27.260Z,13.60
2019-05-19T10:16:54.049Z,13.80
2019-05-19T10:19:20.841Z,13.80
2019-05-19T10:21:47.745Z,13.90
2019-05-19T10:24:14.564Z,13.90
2019-05-19T10:26:41.573Z,14.00
2019-05-19T10:29:08.471Z,14.10
2019-05-19T10:31:35.438Z,14.20
2019-05-19T10:34:02.549Z,14.30
2019-05-19T10:36:29.460Z,14.20
2019-05-19T10:38:56.393Z,14.30
2019-05-19T10:41:23.322Z,14.20
2019-05-19T10:43:52.091Z,14.30
2019-05-19T10:46:19.179Z,14.40
2019-05-19T10:48:46.073Z,14.50
2019-05-19T10:51:12.867Z,14.50
2019-05-19T10:53:39.663Z,14.50
2019-05-19T10:56:06.486Z,14.70
2019-05-19T10:58:33.347Z,14.80
2019-05-19T11:01:00.246Z,14.80
2019-05-19T11:03:27.096Z,14.90
2019-05-19T11:05:53.907Z,15.00
2019-05-19T11:08:21.061Z,15.00
2019-05-19T11:10:47.891Z,15.00
2019-05-19T11:13:14.854Z,15.00
2019-05-19T11:15:41.646Z,15.10
2019-05-19T11:18:08.506Z,15.10
2019-05-19T11:20:35.338Z,15.10
2019-05-19T11:23:02.228Z,15.20
2019-05-19T11:25:34.126Z,15.30
2019-05-19T11:27:58.040Z,15.50
2019-05-19T11:30:25.125Z,15.50
2019-05-19T11:32:52.041Z,15.60
2019-05-19T11:35:18.884Z,15.70
2019-05-19T11:37:45.678Z,15.70
2019-05-19T11:40:12.784Z,15.70
2019-05-19T11:42:39.576Z,15.70
2019-05-19T11:45:06.991Z,15.60
2019-05-19T11:47:34.233Z,15.40
2019-05-19T11:50:01.028Z,15.30
2019-05-19T11:52:27.814Z,15.30
2019-05-19T11:54:54.658Z,15.30
2019-05-19T11:57:21.468Z,15.50
2019-05-19T11:59:48.267Z,15.60
2019-05-19T12:02:15.082Z,15.60
2019-05-19T12:04:41.962Z,15.80
2019-05-19T12:07:08.815Z,15.80
2019-05-19T12:09:36.042Z,16.00
2019-05-19T12:12:03.036Z,16.00
2019-05-19T12:14:30.144Z,16.00
2019-05-19T12:16:57.037Z,16.10
2019-05-19T12:19:24.118Z,16.10
2019-05-19T12:21:50.901Z,16.30
2019-05-19T12:24:17.939Z,16.30
2019-05-19T12:26:44.758Z,16.40
2019-05-19T12:29:11.537Z,16.30
2019-05-19T12:31:38.444Z,16.20
2019-05-19T12:34:05.232Z,16.20
2019-05-19T12:36:32.329Z,16.50
2019-05-19T12:38:59.444Z,16.40
2019-05-19T12:41:26.247Z,16.50
2019-05-19T12:43:53.042Z,16.50
2019-05-19T12:46:19.910Z,16.60
2019-05-19T12:48:46.722Z,16.70
2019-05-19T12:51:13.515Z,16.90
2019-05-19T12:53:40.763Z,17.00
2019-05-19T12:56:07.582Z,17.10
2019-05-19T12:58:35.167Z,17.30
2019-05-19T13:01:02.006Z,17.40
2019-05-19T13:03:28.930Z,17.50
2019-05-19T13:05:55.733Z,17.60
2019-05-19T13:08:22.543Z,17.60
2019-05-19T13:10:49.401Z,17.80
2019-05-19T13:13:16.202Z,17.80
2019-05-19T13:15:43.010Z,17.90
2019-05-19T13:18:10.129Z,17.90
2019-05-19T13:20:36.932Z,17.80
2019-05-19T13:23:04.396Z,17.80
2019-05-19T13:25:31.180Z,17.60
2019-05-19T13:27:58.083Z,17.60
2019-05-19T13:30:24.892Z,17.60
2019-05-19T13:32:51.792Z,17.50
2019-05-19T13:35:18.895Z,17.40
2019-05-19T13:37:45.938Z,17.40
2019-05-19T13:40:12.933Z,17.20
2019-05-19T13:42:39.924Z,17.10
2019-05-19T13:45:08.190Z,17.10
2019-05-19T13:47:35.196Z,16.90
2019-05-19T13:50:06.370Z,16.80
2019-05-19T13:52:33.253Z,16.80
2019-05-19T13:55:00.080Z,17.30
2019-05-19T13:57:26.885Z,17.90
2019-05-19T13:59:54.853Z,18.50
2019-05-19T14:02:21.646Z,19.20
2019-05-19T14:04:48.469Z,19.90
2019-05-19T14:07:16.108Z,20.70
2019-05-19T14:09:42.916Z,20.90
2019-05-19T14:12:09.826Z,21.00
2019-05-19T14:14:36.650Z,21.50
2019-05-19T14:17:03.542Z,21.60
2019-05-19T14:19:30.446Z,21.70
2019-05-19T14:21:57.463Z,22.10
2019-05-19T14:24:24.262Z,22.60
2019-05-19T14:26:51.227Z,22.80
2019-05-19T14:29:18.107Z,23.20
2019-05-19T14:31:45.239Z,23.70
2019-05-19T14:34:12.017Z,24.00
2019-05-19T14:36:38.845Z,24.20
2019-05-19T14:39:06.290Z,24.30
2019-05-19T14:41:35.080Z,24.10
2019-05-19T14:44:02.310Z,23.90
2019-05-19T14:46:29.088Z,23.80
2019-05-19T14:48:55.886Z,23.10
2019-05-19T14:51:22.686Z,22.70
2019-05-19T14:53:49.472Z,22.50
2019-05-19T14:56:16.514Z,22.40
2019-05-19T14:58:43.335Z,22.00
2019-05-19T15:01:10.233Z,21.50
2019-05-19T15:03:37.048Z,21.00
2019-05-19T15:06:03.868Z,20.90
2019-05-19T15:08:30.664Z,21.20
2019-05-19T15:10:57.453Z,21.50
2019-05-19T15:13:24.273Z,21.50
2019-05-19T15:15:51.067Z,21.20
2019-05-19T15:18:17.865Z,21.00
2019-05-19T15:20:44.806Z,20.70
2019-05-19T15:23:11.585Z,20.70
2019-05-19T15:25:38.684Z,20.90
2019-05-19T15:28:06.144Z,20.70
2019-05-19T15:30:32.938Z,20.30
2019-05-19T15:32:59.950Z,20.30
2019-05-19T15:35:26.753Z,20.20
2019-05-19T15:37:53.640Z,20.40
2019-05-19T15:40:20.479Z,20.10
2019-05-19T15:42:47.307Z,20.10
2019-05-19T15:45:14.301Z,20.10
2019-05-19T15:47:41.105Z,19.90
2019-05-19T15:50:08.362Z,19.60
2019-05-19T15:52:35.177Z,19.50
2019-05-19T15:55:02.655Z,19.50
2019-05-19T15:57:29.802Z,19.20
2019-05-19T15:59:56.728Z,19.10
2019-05-19T16:02:23.574Z,19.10
2019-05-19T16:04:50.763Z,18.90
2019-05-19T16:07:17.834Z,18.80
2019-05-19T16:09:44.634Z,18.80
2019-05-19T16:12:11.433Z,18.80
2019-05-19T16:14:38.234Z,19.00
2019-05-19T16:17:05.040Z,19.50
2019-05-19T16:19:32.042Z,20.00
2019-05-19T16:21:58.843Z,20.50
2019-05-19T16:24:25.761Z,21.00
2019-05-19T16:26:52.578Z,20.90
2019-05-19T16:29:19.387Z,21.30
2019-05-19T16:31:46.812Z,21.60
2019-05-19T16:34:13.909Z,21.70
2019-05-19T16:36:40.704Z,22.20
2019-05-19T16:39:07.800Z,22.50
2019-05-19T16:41:34.697Z,22.90
2019-05-19T16:44:01.796Z,23.00
2019-05-19T16:46:29.656Z,22.90
2019-05-19T16:48:56.769Z,22.90
2019-05-19T16:51:23.588Z,22.60
2019-05-19T16:53:52.174Z,22.60
2019-05-19T16:56:18.994Z,22.20
2019-05-19T16:58:46.085Z,22.30
2019-05-19T17:01:12.882Z,22.20
2019-05-19T17:03:39.994Z,22.40
2019-05-19T17:06:06.798Z,22.30
2019-05-19T17:08:33.579Z,22.60
2019-05-19T17:11:00.543Z,22.30
2019-05-19T17:13:27.326Z,22.30
2019-05-19T17:15:54.120Z,22.30
2019-05-19T17:18:20.989Z,22.30
2019-05-19T17:20:47.772Z,22.40
2019-05-19T17:23:14.567Z,22.40
2019-05-19T17:25:41.870Z,22.40
2019-05-19T17:28:08.682Z,22.20
2019-05-19T17:30:35.499Z,22.00
2019-05-19T17:33:02.265Z,22.00
2019-05-19T17:35:29.059Z,21.60
2019-05-19T17:37:56.214Z,21.70
2019-05-19T17:40:23.067Z,21.70
2019-05-19T17:42:49.953Z,21.80
2019-05-19T17:45:17.126Z,21.70
2019-05-19T17:47:44.286Z,21.50
2019-05-19T17:50:13.703Z,21.20
2019-05-19T17:52:40.607Z,21.00
2019-05-19T17:55:08.424Z,20.90
2019-05-19T17:57:36.919Z,20.90
2019-05-19T18:00:10.282Z,20.90
2019-05-19T18:02:37.693Z,20.60
2019-05-19T18:05:05.243Z,20.40
2019-05-19T18:07:32.684Z,20.30
2019-05-19T18:09:59.516Z,20.10
2019-05-19T18:12:26.336Z,19.80
2019-05-19T18:14:53.181Z,19.80
2019-05-19T18:17:20.030Z,19.50
2019-05-19T18:19:46.826Z,19.40
2019-05-19T18:22:13.609Z,19.50
2019-05-19T18:24:40.515Z,19.30
2019-05-19T18:27:07.427Z,18.90
2019-05-19T18:29:34.211Z,18.90
2019-05-19T18:32:01.176Z,18.50
2019-05-19T18:34:27.966Z,18.30
2019-05-19T18:36:54.784Z,18.20
2019-05-19T18:39:21.668Z,18.10
2019-05-19T18:41:48.536Z,17.90
2019-05-19T18:44:15.318Z,17.80
2019-05-19T18:46:42.157Z,17.70
2019-05-19T18:49:09.250Z,17.60
2019-05-19T18:51:36.067Z,17.60
2019-05-19T18:54:03.253Z,17.40
2019-05-19T18:56:30.052Z,16.70
2019-05-19T18:58:57.136Z,16.80
2019-05-19T19:01:24.614Z,16.40
2019-05-19T19:03:51.825Z,16.60
2019-05-19T19:06:18.656Z,16.60
2019-05-19T19:08:45.580Z,16.60
2019-05-19T19:11:12.606Z,16.70
2019-05-19T19:13:39.415Z,16.70
2019-05-19T19:16:06.328Z,16.60
2019-05-19T19:18:33.128Z,16.60
2019-05-19T19:20:59.960Z,16.60
2019-05-19T19:23:27.129Z,16.40
2019-05-19T19:25:54.224Z,16.40
2019-05-19T19:28:21.193Z,16.40
2019-05-19T19:30:48.030Z,16.40
2019-05-19T19:33:14.840Z,16.30
2019-05-19T19:35:41.672Z,16.20
2019-05-19T19:38:08.800Z,16.00
2019-05-19T19:40:35.598Z,16.00
2019-05-19T19:43:03.361Z,16.00
2019-05-19T19:45:30.450Z,15.90
2019-05-19T19:47:57.768Z,15.90
2019-05-19T19:50:24.711Z,15.80
2019-05-19T19:52:51.565Z,15.70
2019-05-19T19:55:18.387Z,15.60
2019-05-19T19:57:45.195Z,15.60
2019-05-19T20:00:18.378Z,15.50
2019-05-19T20:02:41.887Z,15.50
2019-05-19T20:05:09.265Z,15.50
2019-05-19T20:07:36.198Z,15.40
2019-05-19T20:10:05.703Z,15.30
2019-05-19T20:12:32.628Z,15.20
2019-05-19T20:14:59.437Z,15.20
2019-05-19T20:17:26.604Z,15.10
2019-05-19T20:19:53.753Z,15.00
2019-05-19T20:22:20.592Z,15.00
2019-05-19T20:24:48.648Z,14.80
2019-05-19T20:27:15.545Z,14.80
2019-05-19T20:29:42.386Z,14.70
2019-05-19T20:32:09.164Z,14.50
2019-05-19T20:34:35.958Z,14.50
2019-05-19T20:37:03.147Z,14.50
2019-05-19T20:39:29.947Z,14.50
2019-05-19T20:41:56.851Z,14.40
2019-05-19T20:44:23.752Z,14.30
2019-05-19T20:46:50.558Z,14.30
2019-05-19T20:49:17.406Z,14.20
2019-05-19T20:51:44.354Z,14.10
2019-05-19T20:54:11.158Z,13.90
2019-05-19T20:56:37.975Z,13.70
2019-05-19T20:59:04.809Z,13.50
2019-05-19T21:01:31.673Z,13.40
2019-05-19T21:03:58.895Z,13.40
2019-05-19T21:06:26.006Z,13.40
2019-05-19T21:08:52.801Z,13.30
2019-05-19T21:11:19.590Z,13.30
2019-05-19T21:13:46.421Z,13.20
2019-05-19T21:16:13.554Z,13.20
2019-05-19T21:18:40.337Z,13.20
2019-05-19T21:21:07.198Z,13.10
2019-05-19T21:23:34.353Z,13.00
2019-05-19T21:26:01.200Z,13.00
2019-05-19T21:28:28.722Z,13.00
2019-05-19T21:31:05.305Z,12.90
2019-05-19T21:33:24.193Z,12.90
2019-05-19T21:35:51.013Z,12.80
2019-05-19T21:38:17.813Z,12.90
2019-05-19T21:40:44.642Z,12.90
2019-05-19T21:43:11.457Z,12.90
2019-05-19T21:45:38.574Z,12.90
2019-05-19T21:48:05.439Z,12.90
2019-05-19T21:50:32.453Z,12.90
2019-05-19T21:52:59.760Z,12.90
2019-05-19T21:55:26.580Z,12.80
2019-05-19T21:57:53.723Z,12.80
2019-05-19T22:00:23.817Z,12.90
2019-05-19T22:02:50.612Z,12.90
2019-05-19T22:05:17.558Z,13.00
2019-05-19T22:08:04.224Z,13.00
2019-05-19T22:10:31.270Z,13.00
2019-05-19T22:12:58.080Z,12.70
2019-05-19T22:15:25.196Z,12.70
2019-05-19T22:17:52.306Z,12.60
2019-05-19T22:20:19.207Z,12.50
2019-05-19T22:22:46.006Z,12.50
2019-05-19T22:25:13.438Z,12.40
2019-05-19T22:27:40.234Z,12.40
2019-05-19T22:30:07.769Z,12.30
2019-05-19T22:32:34.581Z,12.40
2019-05-19T22:35:01.534Z,12.20
2019-05-19T22:37:28.958Z,12.20
2019-05-19T22:39:55.776Z,12.20
2019-05-19T22:42:22.619Z,12.20
2019-05-19T22:44:49.476Z,12.30
2019-05-19T22:47:16.540Z,12.40
2019-05-19T22:49:43.350Z,12.40
2019-05-19T22:52:10.146Z,12.30
2019-05-19T22:54:37.226Z,12.20
2019-05-19T22:57:04.368Z,12.30
2019-05-19T22:59:31.431Z,12.30
2019-05-19T23:01:58.463Z,12.10
2019-05-19T23:04:25.292Z,12.00
2019-05-19T23:06:52.270Z,12.00
2019-05-19T23:09:19.698Z,12.00
2019-05-19T23:11:46.577Z,12.00
2019-05-19T23:14:13.509Z,11.90
2019-05-19T23:16:40.331Z,11.70
2019-05-19T23:19:07.100Z,11.50
2019-05-19T23:21:34.567Z,11.50
2019-05-19T23:24:01.689Z,11.30
2019-05-19T23:26:28.520Z,11.20
2019-05-19T23:28:55.313Z,11.30
2019-05-19T23:31:22.129Z,11.20
2019-05-19T23:33:49.024Z,11.20
2019-05-19T23:36:15.862Z,11.20
2019-05-19T23:38:43.062Z,11.20
2019-05-19T23:41:09.852Z,11.20
2019-05-19T23:43:36.740Z,11.10
2019-05-19T23:46:03.793Z,11.10
2019-05-19T23:48:30.582Z,11.10
2019-05-19T23:50:57.361Z,11.00
2019-05-19T23:53:24.472Z,10.90
2019-05-19T23:55:51.294Z,10.90
2019-05-19T23:58:18.097Z,11.00
